Terminal Aerodrome Forecast
Issued by NWS

Current Version | Previous Version | Text Only | Print | Product List | Glossary On
Versions: 1 2 3 4 5 6 7 8 9 10 11 12
000
FTUS46 KSTO 281731
TAFRDD
TAF
KRDD 281731Z 2818/2918 VRB05KT P6SM BKN250
     FM282300 17012G20KT P6SM BKN150
     FM291200 19015KT P6SM OVC100
     FM291500 20012KT P6SM -SHRA OVC050=

USA.gov is the U.S. government's official web portal to all federal, state and local government web resources and services.